sensor_id;sensor_type;location;lat;lon;timestamp;pressure;altitude;pressure_sealevel;temperature;humidity
37291;BME280;23175;-33.706;151.094;2023-06-10T00:00:15;100560.68;;;14.29;35.56
37291;BME280;23175;-33.706;151.094;2023-06-10T00:02:45;100563.89;;;14.55;34.56
37291;BME280;23175;-33.706;151.094;2023-06-10T00:05:15;100565.05;;;14.75;34.02
37291;BME280;23175;-33.706;151.094;2023-06-10T00:07:45;100568.69;;;13.84;34.98
37291;BME280;23175;-33.706;151.094;2023-06-10T00:10:15;100567.31;;;11.49;38.63
37291;BME280;23175;-33.706;151.094;2023-06-10T00:12:45;100565.18;;;15.20;34.29
37291;BME280;23175;-33.706;151.094;2023-06-10T00:15:14;100568.19;;;12.79;36.29
37291;BME280;23175;-33.706;151.094;2023-06-10T00:17:44;100563.38;;;13.69;33.62
37291;BME280;23175;-33.706;151.094;2023-06-10T00:20:14;100557.41;;;13.46;33.97
37291;BME280;23175;-33.706;151.094;2023-06-10T00:22:44;100553.71;;;12.13;33.51
37291;BME280;23175;-33.706;151.094;2023-06-10T00:25:14;100550.99;;;12.77;34.19
37291;BME280;23175;-33.706;151.094;2023-06-10T00:27:44;100547.81;;;10.91;35.74
37291;BME280;23175;-33.706;151.094;2023-06-10T00:30:14;100549.97;;;13.71;32.60
37291;BME280;23175;-33.706;151.094;2023-06-10T00:32:44;100546.18;;;13.69;33.24
37291;BME280;23175;-33.706;151.094;2023-06-10T00:35:14;100543.53;;;10.92;36.29
37291;BME280;23175;-33.706;151.094;2023-06-10T00:37:44;100537.81;;;10.52;34.04
37291;BME280;23175;-33.706;151.094;2023-06-10T00:40:14;100536.71;;;12.05;33.00
37291;BME280;23175;-33.706;151.094;2023-06-10T00:42:45;100530.91;;;14.92;30.05
37291;BME280;23175;-33.706;151.094;2023-06-10T00:45:15;100532.38;;;14.46;29.44
37291;BME280;23175;-33.706;151.094;2023-06-10T00:47:45;100532.22;;;14.44;28.87
37291;BME280;23175;-33.706;151.094;2023-06-10T00:50:15;100536.83;;;17.12;27.40
37291;BME280;23175;-33.706;151.094;2023-06-10T00:52:44;100536.49;;;18.00;24.92
37291;BME280;23175;-33.706;151.094;2023-06-10T00:55:14;100529.99;;;18.44;24.23
37291;BME280;23175;-33.706;151.094;2023-06-10T00:57:47;100524.14;;;19.76;22.83
37291;BME280;23175;-33.706;151.094;2023-06-10T01:00:17;100527.05;;;19.39;22.65
37291;BME280;23175;-33.706;151.094;2023-06-10T01:02:48;100518.95;;;16.27;23.41
37291;BME280;23175;-33.706;151.094;2023-06-10T01:05:18;100514.03;;;16.22;24.99
37291;BME280;23175;-33.706;151.094;2023-06-10T01:07:56;100512.78;;;13.18;28.16
37291;BME280;23175;-33.706;151.094;2023-06-10T01:10:35;100511.06;;;11.43;30.75
37291;BME280;23175;-33.706;151.094;2023-06-10T01:13:09;100508.50;;;10.69;31.74
37291;BME280;23175;-33.706;151.094;2023-06-10T01:15:40;100502.06;;;12.72;30.33
37291;BME280;23175;-33.706;151.094;2023-06-10T01:18:11;100505.72;;;11.58;32.57
37291;BME280;23175;-33.706;151.094;2023-06-10T01:20:41;100499.38;;;9.35;35.37
37291;BME280;23175;-33.706;151.094;2023-06-10T01:23:12;100493.24;;;10.30;33.66
37291;BME280;23175;-33.706;151.094;2023-06-10T01:25:45;100489.39;;;13.64;30.85
37291;BME280;23175;-33.706;151.094;2023-06-10T01:28:17;100479.78;;;9.96;34.31
37291;BME280;23175;-33.706;151.094;2023-06-10T01:30:53;100480.92;;;12.04;33.65
37291;BME280;23175;-33.706;151.094;2023-06-10T01:33:35;100480.46;;;9.36;34.92
37291;BME280;23175;-33.706;151.094;2023-06-10T01:36:07;100474.67;;;10.14;36.00
37291;BME280;23175;-33.706;151.094;2023-06-10T01:38:42;100470.50;;;9.35;36.69
37291;BME280;23175;-33.706;151.094;2023-06-10T01:41:14;100469.10;;;10.67;35.46
37291;BME280;23175;-33.706;151.094;2023-06-10T01:43:46;100464.83;;;10.84;35.85
37291;BME280;23175;-33.706;151.094;2023-06-10T01:46:17;100460.46;;;9.62;36.26
37291;BME280;23175;-33.706;151.094;2023-06-10T01:48:47;100460.67;;;10.16;35.74
37291;BME280;23175;-33.706;151.094;2023-06-10T01:51:17;100454.84;;;10.68;34.61
37291;BME280;23175;-33.706;151.094;2023-06-10T01:53:47;100444.97;;;13.14;31.26
37291;BME280;23175;-33.706;151.094;2023-06-10T01:56:17;100440.82;;;11.61;34.53
37291;BME280;23175;-33.706;151.094;2023-06-10T01:58:48;100445.26;;;9.70;35.53
37291;BME280;23175;-33.706;151.094;2023-06-10T02:01:18;100449.26;;;13.37;32.63
37291;BME280;23175;-33.706;151.094;2023-06-10T02:03:48;100444.67;;;12.59;32.35
37291;BME280;23175;-33.706;151.094;2023-06-10T02:06:19;100439.99;;;13.00;31.10
37291;BME280;23175;-33.706;151.094;2023-06-10T02:08:49;100438.67;;;12.94;32.85
37291;BME280;23175;-33.706;151.094;2023-06-10T02:11:19;100433.81;;;14.85;30.58
37291;BME280;23175;-33.706;151.094;2023-06-10T02:13:49;100436.33;;;14.46;30.62
37291;BME280;23175;-33.706;151.094;2023-06-10T02:16:19;100434.28;;;12.59;32.68
37291;BME280;23175;-33.706;151.094;2023-06-10T02:18:50;100431.97;;;13.56;31.04
37291;BME280;23175;-33.706;151.094;2023-06-10T02:21:20;100425.61;;;11.44;33.46
37291;BME280;23175;-33.706;151.094;2023-06-10T02:23:50;100421.97;;;10.98;33.91
37291;BME280;23175;-33.706;151.094;2023-06-10T02:26:20;100416.33;;;11.14;33.52
37291;BME280;23175;-33.706;151.094;2023-06-10T02:28:51;100420.38;;;10.20;35.90
37291;BME280;23175;-33.706;151.094;2023-06-10T02:31:21;100418.62;;;11.53;35.67
37291;BME280;23175;-33.706;151.094;2023-06-10T02:33:52;100417.53;;;11.26;33.76
37291;BME280;23175;-33.706;151.094;2023-06-10T02:36:22;100420.72;;;10.79;35.19
37291;BME280;23175;-33.706;151.094;2023-06-10T02:38:52;100414.48;;;11.57;34.09
37291;BME280;23175;-33.706;151.094;2023-06-10T02:41:22;100411.88;;;9.63;36.01
37291;BME280;23175;-33.706;151.094;2023-06-10T02:43:53;100407.82;;;12.94;33.91
37291;BME280;23175;-33.706;151.094;2023-06-10T02:46:23;100401.98;;;12.14;34.67
37291;BME280;23175;-33.706;151.094;2023-06-10T02:48:53;100402.35;;;11.30;36.03
37291;BME280;23175;-33.706;151.094;2023-06-10T02:51:23;100400.49;;;13.30;33.09
37291;BME280;23175;-33.706;151.094;2023-06-10T02:53:53;100400.53;;;12.54;34.45
37291;BME280;23175;-33.706;151.094;2023-06-10T02:56:23;100396.05;;;13.63;33.41
37291;BME280;23175;-33.706;151.094;2023-06-10T02:58:53;100393.49;;;13.50;32.42
37291;BME280;23175;-33.706;151.094;2023-06-10T03:01:23;100391.41;;;13.14;32.62
37291;BME280;23175;-33.706;151.094;2023-06-10T03:03:52;100391.65;;;11.55;34.64
37291;BME280;23175;-33.706;151.094;2023-06-10T03:06:22;100386.01;;;10.15;34.69
37291;BME280;23175;-33.706;151.094;2023-06-10T03:08:53;100379.56;;;11.69;32.70
37291;BME280;23175;-33.706;151.094;2023-06-10T03:11:23;100378.54;;;10.73;35.01
37291;BME280;23175;-33.706;151.094;2023-06-10T03:13:53;100375.93;;;13.79;30.91
37291;BME280;23175;-33.706;151.094;2023-06-10T03:16:23;100376.22;;;12.57;31.87
37291;BME280;23175;-33.706;151.094;2023-06-10T03:18:53;100376.86;;;13.13;31.82
37291;BME280;23175;-33.706;151.094;2023-06-10T03:21:23;100368.86;;;11.09;33.72
37291;BME280;23175;-33.706;151.094;2023-06-10T03:23:53;100372.51;;;11.86;33.31
37291;BME280;23175;-33.706;151.094;2023-06-10T03:26:23;100365.60;;;11.37;34.06
37291;BME280;23175;-33.706;151.094;2023-06-10T03:28:53;100361.64;;;10.63;34.55
37291;BME280;23175;-33.706;151.094;2023-06-10T03:31:23;100357.70;;;11.23;33.40
37291;BME280;23175;-33.706;151.094;2023-06-10T03:33:52;100359.26;;;11.20;34.29
37291;BME280;23175;-33.706;151.094;2023-06-10T03:36:22;100366.13;;;11.75;33.65
37291;BME280;23175;-33.706;151.094;2023-06-10T03:38:53;100369.08;;;12.52;32.83
37291;BME280;23175;-33.706;151.094;2023-06-10T03:41:22;100364.58;;;12.82;32.52
37291;BME280;23175;-33.706;151.094;2023-06-10T03:43:52;100358.15;;;11.51;33.57
37291;BME280;23175;-33.706;151.094;2023-06-10T03:46:22;100355.47;;;13.74;31.95
37291;BME280;23175;-33.706;151.094;2023-06-10T03:48:52;100358.31;;;12.65;32.36
37291;BME280;23175;-33.706;151.094;2023-06-10T03:51:22;100363.00;;;12.63;33.39
37291;BME280;23175;-33.706;151.094;2023-06-10T03:53:52;100360.63;;;11.80;34.93
37291;BME280;23175;-33.706;151.094;2023-06-10T03:56:22;100358.44;;;13.01;32.32
37291;BME280;23175;-33.706;151.094;2023-06-10T03:58:52;100358.34;;;13.49;33.01
37291;BME280;23175;-33.706;151.094;2023-06-10T04:01:22;100353.53;;;13.17;32.10
37291;BME280;23175;-33.706;151.094;2023-06-10T04:03:53;100354.89;;;11.16;32.42
37291;BME280;23175;-33.706;151.094;2023-06-10T04:06:22;100354.67;;;9.85;34.85
37291;BME280;23175;-33.706;151.094;2023-06-10T04:08:53;100357.41;;;10.79;35.18
37291;BME280;23175;-33.706;151.094;2023-06-10T04:11:23;100357.72;;;12.66;32.30
37291;BME280;23175;-33.706;151.094;2023-06-10T04:13:54;100361.67;;;11.21;33.95
37291;BME280;23175;-33.706;151.094;2023-06-10T04:16:23;100362.80;;;13.24;31.85
37291;BME280;23175;-33.706;151.094;2023-06-10T04:18:53;100362.14;;;11.26;34.36
37291;BME280;23175;-33.706;151.094;2023-06-10T04:21:24;100360.07;;;11.95;33.61
37291;BME280;23175;-33.706;151.094;2023-06-10T04:23:54;100362.65;;;12.66;31.32
37291;BME280;23175;-33.706;151.094;2023-06-10T04:26:24;100362.82;;;13.15;30.86
37291;BME280;23175;-33.706;151.094;2023-06-10T04:28:54;100362.33;;;14.92;29.53
37291;BME280;23175;-33.706;151.094;2023-06-10T04:31:24;100364.03;;;10.57;33.91
37291;BME280;23175;-33.706;151.094;2023-06-10T04:33:53;100367.73;;;12.97;31.46
37291;BME280;23175;-33.706;151.094;2023-06-10T04:36:23;100367.16;;;12.38;32.47
37291;BME280;23175;-33.706;151.094;2023-06-10T04:38:53;100370.23;;;13.00;31.39
37291;BME280;23175;-33.706;151.094;2023-06-10T04:41:23;100364.90;;;13.08;29.28
37291;BME280;23175;-33.706;151.094;2023-06-10T04:43:52;100362.76;;;13.55;29.53
37291;BME280;23175;-33.706;151.094;2023-06-10T04:46:22;100358.01;;;11.42;31.43
37291;BME280;23175;-33.706;151.094;2023-06-10T04:48:52;100357.10;;;15.16;27.67
37291;BME280;23175;-33.706;151.094;2023-06-10T04:51:22;100353.32;;;14.07;28.73
37291;BME280;23175;-33.706;151.094;2023-06-10T04:53:52;100352.77;;;15.30;26.87
37291;BME280;23175;-33.706;151.094;2023-06-10T04:56:22;100355.59;;;14.05;29.58
37291;BME280;23175;-33.706;151.094;2023-06-10T04:58:52;100354.90;;;15.21;28.11
37291;BME280;23175;-33.706;151.094;2023-06-10T05:01:23;100356.13;;;14.39;29.25
37291;BME280;23175;-33.706;151.094;2023-06-10T05:03:54;100354.41;;;15.45;27.98
37291;BME280;23175;-33.706;151.094;2023-06-10T05:06:24;100356.75;;;14.95;28.29
37291;BME280;23175;-33.706;151.094;2023-06-10T05:08:54;100360.48;;;14.46;29.53
37291;BME280;23175;-33.706;151.094;2023-06-10T05:11:23;100362.57;;;12.39;29.45
37291;BME280;23175;-33.706;151.094;2023-06-10T05:13:53;100363.64;;;12.56;28.93
37291;BME280;23175;-33.706;151.094;2023-06-10T05:16:23;100366.66;;;12.41;30.23
37291;BME280;23175;-33.706;151.094;2023-06-10T05:18:52;100363.02;;;13.89;27.53
37291;BME280;23175;-33.706;151.094;2023-06-10T05:21:22;100364.97;;;15.90;26.30
37291;BME280;23175;-33.706;151.094;2023-06-10T05:23:53;100366.37;;;16.06;27.05
37291;BME280;23175;-33.706;151.094;2023-06-10T05:26:23;100368.52;;;12.87;29.27
37291;BME280;23175;-33.706;151.094;2023-06-10T05:28:53;100368.24;;;13.44;27.86
37291;BME280;23175;-33.706;151.094;2023-06-10T05:31:23;100367.68;;;14.82;27.14
37291;BME280;23175;-33.706;151.094;2023-06-10T05:33:53;100365.73;;;16.02;26.92
37291;BME280;23175;-33.706;151.094;2023-06-10T05:36:23;100362.92;;;16.03;26.63
37291;BME280;23175;-33.706;151.094;2023-06-10T05:38:54;100368.60;;;15.94;26.85
37291;BME280;23175;-33.706;151.094;2023-06-10T05:41:23;100365.04;;;16.58;27.64
37291;BME280;23175;-33.706;151.094;2023-06-10T05:43:53;100364.57;;;17.07;27.05
37291;BME280;23175;-33.706;151.094;2023-06-10T05:46:24;100367.10;;;16.91;27.59
37291;BME280;23175;-33.706;151.094;2023-06-10T05:48:54;100366.65;;;17.05;27.61
37291;BME280;23175;-33.706;151.094;2023-06-10T05:51:24;100368.35;;;16.89;28.07
37291;BME280;23175;-33.706;151.094;2023-06-10T05:53:54;100368.97;;;16.85;28.61
37291;BME280;23175;-33.706;151.094;2023-06-10T05:56:23;100368.92;;;16.65;28.79
37291;BME280;23175;-33.706;151.094;2023-06-10T05:58:54;100371.86;;;16.90;28.84
37291;BME280;23175;-33.706;151.094;2023-06-10T06:01:23;100374.87;;;16.86;29.12
37291;BME280;23175;-33.706;151.094;2023-06-10T06:03:53;100376.07;;;15.08;30.78
37291;BME280;23175;-33.706;151.094;2023-06-10T06:06:23;100381.09;;;14.98;31.31
37291;BME280;23175;-33.706;151.094;2023-06-10T06:08:54;100384.84;;;16.11;30.81
37291;BME280;23175;-33.706;151.094;2023-06-10T06:11:23;100389.61;;;15.98;31.02
37291;BME280;23175;-33.706;151.094;2023-06-10T06:13:53;100393.52;;;16.14;30.41
37291;BME280;23175;-33.706;151.094;2023-06-10T06:16:24;100397.67;;;16.20;30.05
37291;BME280;23175;-33.706;151.094;2023-06-10T06:18:53;100395.95;;;15.91;29.81
37291;BME280;23175;-33.706;151.094;2023-06-10T06:21:23;100401.75;;;15.81;30.19
37291;BME280;23175;-33.706;151.094;2023-06-10T06:23:54;100403.62;;;15.64;30.20
37291;BME280;23175;-33.706;151.094;2023-06-10T06:26:23;100403.55;;;15.83;30.27
37291;BME280;23175;-33.706;151.094;2023-06-10T06:28:53;100406.63;;;15.37;30.20
37291;BME280;23175;-33.706;151.094;2023-06-10T06:31:23;100409.76;;;16.10;30.08
37291;BME280;23175;-33.706;151.094;2023-06-10T06:33:52;100414.97;;;15.83;30.23
37291;BME280;23175;-33.706;151.094;2023-06-10T06:36:23;100418.13;;;15.62;30.70
37291;BME280;23175;-33.706;151.094;2023-06-10T06:38:53;100424.04;;;15.59;31.08
37291;BME280;23175;-33.706;151.094;2023-06-10T06:41:23;100424.41;;;15.62;31.43
37291;BME280;23175;-33.706;151.094;2023-06-10T06:43:54;100426.27;;;16.00;31.54
37291;BME280;23175;-33.706;151.094;2023-06-10T06:46:24;100427.62;;;15.01;31.51
37291;BME280;23175;-33.706;151.094;2023-06-10T06:48:54;100425.78;;;15.18;31.34
37291;BME280;23175;-33.706;151.094;2023-06-10T06:51:23;100427.31;;;15.13;31.51
37291;BME280;23175;-33.706;151.094;2023-06-10T06:53:53;100429.82;;;15.30;32.00
37291;BME280;23175;-33.706;151.094;2023-06-10T06:56:23;100427.42;;;15.10;32.63
37291;BME280;23175;-33.706;151.094;2023-06-10T06:58:53;100429.52;;;14.62;32.63
37291;BME280;23175;-33.706;151.094;2023-06-10T07:01:23;100429.23;;;15.15;33.13
37291;BME280;23175;-33.706;151.094;2023-06-10T07:03:53;100433.21;;;14.69;33.86
37291;BME280;23175;-33.706;151.094;2023-06-10T07:06:23;100435.50;;;14.44;33.71
37291;BME280;23175;-33.706;151.094;2023-06-10T07:08:53;100439.19;;;14.33;33.22
37291;BME280;23175;-33.706;151.094;2023-06-10T07:11:23;100446.05;;;14.83;33.66
37291;BME280;23175;-33.706;151.094;2023-06-10T07:13:53;100446.37;;;14.45;34.16
37291;BME280;23175;-33.706;151.094;2023-06-10T07:16:24;100449.16;;;14.78;34.21
37291;BME280;23175;-33.706;151.094;2023-06-10T07:18:55;100455.99;;;14.34;34.57
37291;BME280;23175;-33.706;151.094;2023-06-10T07:21:25;100456.22;;;13.95;34.98
37291;BME280;23175;-33.706;151.094;2023-06-10T07:23:55;100456.37;;;14.16;35.11
37291;BME280;23175;-33.706;151.094;2023-06-10T07:26:25;100462.17;;;13.63;35.19
37291;BME280;23175;-33.706;151.094;2023-06-10T07:28:55;100462.56;;;13.99;34.98
37291;BME280;23175;-33.706;151.094;2023-06-10T07:31:25;100462.74;;;13.68;35.49
37291;BME280;23175;-33.706;151.094;2023-06-10T07:33:55;100467.49;;;13.64;35.67
37291;BME280;23175;-33.706;151.094;2023-06-10T07:36:25;100469.37;;;13.58;35.61
37291;BME280;23175;-33.706;151.094;2023-06-10T07:38:55;100472.45;;;14.34;35.67
37291;BME280;23175;-33.706;151.094;2023-06-10T07:41:25;100474.85;;;13.54;35.83
37291;BME280;23175;-33.706;151.094;2023-06-10T07:43:55;100476.00;;;13.34;36.18
37291;BME280;23175;-33.706;151.094;2023-06-10T07:46:25;100478.75;;;12.98;36.66
37291;BME280;23175;-33.706;151.094;2023-06-10T07:48:56;100480.92;;;13.69;36.28
37291;BME280;23175;-33.706;151.094;2023-06-10T07:51:26;100485.51;;;13.00;35.41
37291;BME280;23175;-33.706;151.094;2023-06-10T07:53:56;100486.87;;;13.57;35.33
37291;BME280;23175;-33.706;151.094;2023-06-10T07:56:26;100488.85;;;12.37;35.83
37291;BME280;23175;-33.706;151.094;2023-06-10T07:58:56;100491.07;;;12.78;36.02
37291;BME280;23175;-33.706;151.094;2023-06-10T08:01:26;100493.40;;;13.20;35.92
37291;BME280;23175;-33.706;151.094;2023-06-10T08:03:55;100498.24;;;13.10;35.23
37291;BME280;23175;-33.706;151.094;2023-06-10T08:06:25;100499.46;;;12.85;35.75
37291;BME280;23175;-33.706;151.094;2023-06-10T08:08:55;100503.48;;;12.90;35.74
37291;BME280;23175;-33.706;151.094;2023-06-10T08:11:25;100510.29;;;12.85;35.71
37291;BME280;23175;-33.706;151.094;2023-06-10T08:13:55;100511.18;;;12.57;36.38
37291;BME280;23175;-33.706;151.094;2023-06-10T08:16:25;100515.47;;;12.37;36.92
37291;BME280;23175;-33.706;151.094;2023-06-10T08:18:55;100519.23;;;12.39;37.48
37291;BME280;23175;-33.706;151.094;2023-06-10T08:21:25;100524.33;;;11.73;37.83
37291;BME280;23175;-33.706;151.094;2023-06-10T08:23:55;100529.79;;;12.13;37.36
37291;BME280;23175;-33.706;151.094;2023-06-10T08:26:26;100534.52;;;12.04;37.59
37291;BME280;23175;-33.706;151.094;2023-06-10T08:28:56;100537.16;;;12.55;37.25
37291;BME280;23175;-33.706;151.094;2023-06-10T08:31:26;100544.02;;;11.04;38.50
37291;BME280;23175;-33.706;151.094;2023-06-10T08:33:57;100546.20;;;12.43;37.89
37291;BME280;23175;-33.706;151.094;2023-06-10T08:36:28;100549.94;;;11.85;37.82
37291;BME280;23175;-33.706;151.094;2023-06-10T08:38:59;100553.35;;;12.31;37.66
37291;BME280;23175;-33.706;151.094;2023-06-10T08:41:34;100559.90;;;11.38;38.54
37291;BME280;23175;-33.706;151.094;2023-06-10T08:44:12;100562.39;;;12.38;37.92
37291;BME280;23175;-33.706;151.094;2023-06-10T08:46:47;100566.40;;;12.37;38.03
37291;BME280;23175;-33.706;151.094;2023-06-10T08:49:20;100568.94;;;11.98;38.02
37291;BME280;23175;-33.706;151.094;2023-06-10T08:51:54;100574.67;;;11.70;38.42
37291;BME280;23175;-33.706;151.094;2023-06-10T08:54:28;100577.61;;;11.85;38.09
37291;BME280;23175;-33.706;151.094;2023-06-10T08:57:00;100579.95;;;11.81;38.29
37291;BME280;23175;-33.706;151.094;2023-06-10T08:59:32;100585.32;;;11.81;37.98
37291;BME280;23175;-33.706;151.094;2023-06-10T09:02:04;100590.69;;;12.20;37.91
37291;BME280;23175;-33.706;151.094;2023-06-10T09:04:34;100593.26;;;11.56;38.30
37291;BME280;23175;-33.706;151.094;2023-06-10T09:07:06;100590.81;;;12.22;37.60
37291;BME280;23175;-33.706;151.094;2023-06-10T09:09:37;100590.67;;;11.78;38.22
37291;BME280;23175;-33.706;151.094;2023-06-10T09:12:07;100593.94;;;11.94;38.30
37291;BME280;23175;-33.706;151.094;2023-06-10T09:14:38;100599.30;;;11.45;38.69
37291;BME280;23175;-33.706;151.094;2023-06-10T09:17:08;100602.37;;;11.38;38.78
37291;BME280;23175;-33.706;151.094;2023-06-10T09:19:40;100603.35;;;10.91;38.97
37291;BME280;23175;-33.706;151.094;2023-06-10T09:22:12;100604.48;;;11.28;39.01
37291;BME280;23175;-33.706;151.094;2023-06-10T09:24:42;100605.43;;;11.53;38.90
37291;BME280;23175;-33.706;151.094;2023-06-10T09:27:13;100604.31;;;11.36;39.39
37291;BME280;23175;-33.706;151.094;2023-06-10T09:29:52;100606.11;;;10.84;39.57
37291;BME280;23175;-33.706;151.094;2023-06-10T09:32:23;100612.03;;;11.51;39.32
37291;BME280;23175;-33.706;151.094;2023-06-10T09:34:53;100611.70;;;11.31;39.61
37291;BME280;23175;-33.706;151.094;2023-06-10T09:37:24;100614.12;;;10.87;40.11
37291;BME280;23175;-33.706;151.094;2023-06-10T09:40:07;100611.57;;;11.74;39.30
37291;BME280;23175;-33.706;151.094;2023-06-10T09:42:39;100612.81;;;10.85;39.62
37291;BME280;23175;-33.706;151.094;2023-06-10T09:45:10;100615.83;;;10.98;39.74
37291;BME280;23175;-33.706;151.094;2023-06-10T09:47:40;100618.16;;;11.12;39.63
37291;BME280;23175;-33.706;151.094;2023-06-10T09:50:10;100620.45;;;11.08;39.49
37291;BME280;23175;-33.706;151.094;2023-06-10T09:52:41;100620.49;;;10.52;40.21
37291;BME280;23175;-33.706;151.094;2023-06-10T09:55:11;100621.16;;;10.85;40.06
37291;BME280;23175;-33.706;151.094;2023-06-10T09:57:41;100623.28;;;11.11;40.36
37291;BME280;23175;-33.706;151.094;2023-06-10T10:00:13;100627.68;;;10.63;40.60
37291;BME280;23175;-33.706;151.094;2023-06-10T10:02:52;100631.27;;;10.71;40.74
37291;BME280;23175;-33.706;151.094;2023-06-10T10:05:23;100633.52;;;10.95;40.96
37291;BME280;23175;-33.706;151.094;2023-06-10T10:07:54;100638.04;;;10.65;41.06
37291;BME280;23175;-33.706;151.094;2023-06-10T10:10:24;100641.97;;;10.86;40.54
37291;BME280;23175;-33.706;151.094;2023-06-10T10:12:56;100642.43;;;10.91;40.50
37291;BME280;23175;-33.706;151.094;2023-06-10T10:15:31;100646.25;;;10.15;40.77
37291;BME280;23175;-33.706;151.094;2023-06-10T10:18:09;100646.70;;;10.98;41.01
37291;BME280;23175;-33.706;151.094;2023-06-10T10:20:46;100651.70;;;10.43;41.03
37291;BME280;23175;-33.706;151.094;2023-06-10T10:23:24;100655.84;;;10.72;40.56
37291;BME280;23175;-33.706;151.094;2023-06-10T10:25:56;100656.48;;;10.92;40.36
37291;BME280;23175;-33.706;151.094;2023-06-10T10:28:37;100656.88;;;10.23;40.92
37291;BME280;23175;-33.706;151.094;2023-06-10T10:31:11;100658.90;;;10.44;41.24
37291;BME280;23175;-33.706;151.094;2023-06-10T10:33:54;100657.83;;;10.55;41.23
37291;BME280;23175;-33.706;151.094;2023-06-10T10:36:25;100654.21;;;10.11;41.75
37291;BME280;23175;-33.706;151.094;2023-06-10T10:38:55;100653.37;;;10.79;41.07
37291;BME280;23175;-33.706;151.094;2023-06-10T10:41:26;100656.59;;;9.87;41.61
37291;BME280;23175;-33.706;151.094;2023-06-10T10:43:57;100659.98;;;8.17;45.92
37291;BME280;23175;-33.706;151.094;2023-06-10T10:46:28;100655.44;;;9.49;42.53
37291;BME280;23175;-33.706;151.094;2023-06-10T10:48:59;100656.87;;;10.08;41.99
37291;BME280;23175;-33.706;151.094;2023-06-10T10:51:35;100661.18;;;10.38;42.21
37291;BME280;23175;-33.706;151.094;2023-06-10T10:54:13;100663.75;;;10.61;41.28
37291;BME280;23175;-33.706;151.094;2023-06-10T10:57:14;100666.25;;;9.95;41.59
37291;BME280;23175;-33.706;151.094;2023-06-10T10:59:54;100672.67;;;10.34;41.76
37291;BME280;23175;-33.706;151.094;2023-06-10T11:02:44;100675.84;;;10.19;41.31
37291;BME280;23175;-33.706;151.094;2023-06-10T11:05:17;100677.35;;;10.18;41.54
37291;BME280;23175;-33.706;151.094;2023-06-10T11:07:55;100681.25;;;9.87;41.86
37291;BME280;23175;-33.706;151.094;2023-06-10T11:10:31;100680.76;;;10.32;41.16
37291;BME280;23175;-33.706;151.094;2023-06-10T11:13:06;100678.55;;;10.46;41.24
37291;BME280;23175;-33.706;151.094;2023-06-10T11:15:44;100682.00;;;10.19;41.57
37291;BME280;23175;-33.706;151.094;2023-06-10T11:18:20;100682.13;;;10.32;41.62
37291;BME280;23175;-33.706;151.094;2023-06-10T11:20:58;100681.94;;;10.37;41.40
37291;BME280;23175;-33.706;151.094;2023-06-10T11:23:34;100680.97;;;9.21;41.53
37291;BME280;23175;-33.706;151.094;2023-06-10T11:26:32;100683.78;;;9.96;41.73
37291;BME280;23175;-33.706;151.094;2023-06-10T11:29:09;100683.71;;;9.79;42.07
37291;BME280;23175;-33.706;151.094;2023-06-10T11:31:50;100684.07;;;9.72;41.71
37291;BME280;23175;-33.706;151.094;2023-06-10T11:34:27;100684.04;;;10.16;42.01
37291;BME280;23175;-33.706;151.094;2023-06-10T11:36:57;100685.35;;;10.06;41.93
37291;BME280;23175;-33.706;151.094;2023-06-10T11:39:28;100686.38;;;9.17;41.86
37291;BME280;23175;-33.706;151.094;2023-06-10T11:41:59;100686.08;;;9.56;42.33
37291;BME280;23175;-33.706;151.094;2023-06-10T11:44:30;100689.30;;;9.27;42.25
37291;BME280;23175;-33.706;151.094;2023-06-10T11:47:00;100687.64;;;9.92;42.29
37291;BME280;23175;-33.706;151.094;2023-06-10T11:49:30;100686.09;;;9.25;41.83
37291;BME280;23175;-33.706;151.094;2023-06-10T11:52:00;100690.71;;;9.67;41.32
37291;BME280;23175;-33.706;151.094;2023-06-10T11:54:34;100688.07;;;9.66;42.28
37291;BME280;23175;-33.706;151.094;2023-06-10T11:57:04;100692.08;;;8.94;43.68
37291;BME280;23175;-33.706;151.094;2023-06-10T11:59:34;100690.65;;;8.97;43.54
37291;BME280;23175;-33.706;151.094;2023-06-10T12:02:04;100690.80;;;9.28;44.06
37291;BME280;23175;-33.706;151.094;2023-06-10T12:04:34;100690.00;;;9.54;43.27
37291;BME280;23175;-33.706;151.094;2023-06-10T12:07:20;100688.09;;;9.61;42.87
37291;BME280;23175;-33.706;151.094;2023-06-10T12:10:00;100688.75;;;10.03;42.50
37291;BME280;23175;-33.706;151.094;2023-06-10T12:12:30;100685.22;;;9.27;42.61
37291;BME280;23175;-33.706;151.094;2023-06-10T12:15:01;100681.22;;;10.42;41.87
37291;BME280;23175;-33.706;151.094;2023-06-10T12:17:39;100677.15;;;9.94;42.05
37291;BME280;23175;-33.706;151.094;2023-06-10T12:20:23;100678.79;;;9.84;42.12
37291;BME280;23175;-33.706;151.094;2023-06-10T12:22:54;100681.86;;;10.26;41.74
37291;BME280;23175;-33.706;151.094;2023-06-10T12:25:27;100683.72;;;9.55;42.15
37291;BME280;23175;-33.706;151.094;2023-06-10T12:27:58;100685.30;;;9.75;42.44
37291;BME280;23175;-33.706;151.094;2023-06-10T12:30:29;100683.57;;;9.29;41.62
37291;BME280;23175;-33.706;151.094;2023-06-10T12:32:59;100684.61;;;9.66;42.01
37291;BME280;23175;-33.706;151.094;2023-06-10T12:35:30;100682.48;;;9.38;41.93
37291;BME280;23175;-33.706;151.094;2023-06-10T12:38:01;100680.88;;;9.95;41.84
37291;BME280;23175;-33.706;151.094;2023-06-10T12:40:32;100680.44;;;10.32;41.55